עמוד ראשי
METAR-TAF:

METAR-TAF

שדות תעופה :

Matam, סנגל

קו רוחב: 15-39N, קו אורך: 013-15W, גובה: 15מטר

תצפית מזג אוויר נוכחית

הדו"ח נערך לפני 1 שעות ו 13דקות, בשעה 23:00 UTC
רוח 2קשר מכיוון מערב
טמפרטורת 40 צלסיוס
לחות 32%
לחץ 1008 hPa
ראות 10 קילומטר או יותר
ללא עננים שבסיסם נמוך מ 5000 רגל או קומולונימבוס

METAR: GOSM 122300Z 28002KT CAVOK 40/20 Q1008

זמן: 00:13 (00:13 UTC)


TAF: חסר

תצפיות ותחזיות מזג אוויר לגבי יותר מ- 4,000 שדות תעופה ברחבי העולם. דוחות METAR ו- TAF.

התחנות הזמינות מסומנות בנקודות צהובות ואדומות על גבי המפה.

העבר את העכבר לנקודה הצבעונית על מנת לראות את שם התחנה.

לאחר מכן, לחץ כדי לראות את תוכן ואת תחזיות מזג האוויר.

כדי לשנות את המפה: לחץ על הכפתורים הירוקים עם הפלוס השחור כדי להתקרב; על הכפתור הירוק עם המקף כדי להתרחק; או בחיצים הירוקים למפות סמוכות.


METAR-TAF: